Clova, Canada
Current Conditions -  °F | °C
As of 8:00 AM on Tuesday 21 Oct 2014 (Local Time) from CYVO Reporting Station
Broken Clouds Broken Clouds  
Wind Chill: 19°   Ceiling: 22000
Heat Index: 28°   Visibility: 15mi
Dew Point: 27°   Wind: 10mph
Humidity: 93%   Direction: 20°NNE
Pressure: 30.12"   Gusts: NA
Location:  48.12°N, 75.37°W
Report Text: CYVO 211200Z 02009KT 15SM FEW015 SCT100 BKN220 M02/M03 A3012 RMK SC2AC2CI1 SLP221
Loading
Personal Weather Stations






























Interactive Weather Map
Tropical Storm Tracking
New forecast layout! Learn more

10-Day Weather Forecast

Advertisements
Track Severe Weather on mobile